LIEO/OLB METAR and TAF weather

Enter ICAO airport designator
Station Type Date Time Source
LIEO METAR 2022/06/25 22:20 UTC NOAA

LIEO 252220Z AUTO VRB02KT 9999 SCT160/// 23/16 Q1013


Station Type Date Time Source
LIEO Decoded METAR 2022/06/25 22:20 UTC NOAA

Olbia / Costa Smeralda, Italy (LIEO) 40-54N 009-31E 13M
Jun 25, 2022 - 06:20 PM EDT / 2022.06.25 2220 UTC
Wind: Variable at 2 MPH (2 KT):0
Visibility: greater than 7 mile(s):0
Sky conditions: partly cloudy
Temperature: 73 F (23 C)
Dew Point: 60 F (16 C)
Relative Humidity: 64%
Pressure (altimeter): 29.91 in. Hg (1013 hPa)
ob: LIEO 252220Z AUTO VRB02KT 9999 SCT160/// 23/16 Q1013
cycle: 22

Station Type Date Time Source
LIEO TAF 2022/06/25 18:27 UTC NOAA

TAF LIEO 251700Z 2518/2618 VRB05KT 9999 SCT030
BECMG 2608/2610 08010KT

Example: see airport list